createdAt,value
2022-08-26T00:00:11.979Z,4.35
2022-08-26T00:02:43.170Z,4.47
2022-08-26T00:05:10.622Z,4.10
2022-08-26T00:07:38.012Z,4.53
2022-08-26T00:10:06.376Z,4.18
2022-08-26T00:12:35.955Z,4.50
2022-08-26T00:15:11.653Z,3.83
2022-08-26T00:17:40.182Z,4.07
2022-08-26T00:20:14.020Z,4.05
2022-08-26T00:22:41.696Z,4.00
2022-08-26T00:25:10.416Z,4.25
2022-08-26T00:27:39.626Z,4.35
2022-08-26T00:30:13.670Z,4.45
2022-08-26T00:32:46.269Z,3.72
2022-08-26T00:35:13.902Z,4.05
2022-08-26T00:37:42.431Z,4.15
2022-08-26T00:40:16.812Z,5.00
2022-08-26T00:42:47.365Z,4.63
2022-08-26T00:45:16.750Z,4.05
2022-08-26T00:47:52.367Z,4.07
2022-08-26T00:50:26.762Z,4.43
2022-08-26T00:52:56.023Z,4.35
2022-08-26T00:55:34.665Z,4.30
2022-08-26T00:58:06.730Z,3.80
2022-08-26T01:00:34.227Z,4.57
2022-08-26T01:03:03.468Z,4.35
2022-08-26T01:05:32.559Z,4.13
2022-08-26T01:08:00.103Z,3.90
2022-08-26T01:10:31.671Z,4.38
2022-08-26T01:13:02.913Z,4.10
2022-08-26T01:15:36.935Z,4.15
2022-08-26T01:18:06.076Z,4.20
2022-08-26T01:21:11.400Z,4.45
2022-08-26T01:23:46.737Z,4.85
2022-08-26T01:26:41.260Z,4.40
2022-08-26T01:29:17.809Z,4.97
2022-08-26T01:31:57.836Z,4.30
2022-08-26T01:34:34.990Z,4.70
2022-08-26T01:37:07.439Z,4.55
2022-08-26T01:39:38.112Z,4.50
2022-08-26T01:42:13.135Z,4.32
2022-08-26T01:44:52.084Z,4.45
2022-08-26T01:47:26.089Z,4.43
2022-08-26T01:49:56.387Z,4.63
2022-08-26T01:52:30.124Z,4.38
2022-08-26T01:54:59.508Z,4.43
2022-08-26T01:57:28.740Z,4.55
2022-08-26T02:00:01.476Z,4.00
2022-08-26T02:02:29.207Z,4.68
2022-08-26T02:05:01.556Z,4.18
2022-08-26T02:07:30.333Z,4.32
2022-08-26T02:10:00.670Z,4.68
2022-08-26T02:12:28.321Z,4.43
2022-08-26T02:15:00.892Z,4.93
2022-08-26T02:17:40.821Z,4.30
2022-08-26T02:20:14.815Z,4.15
2022-08-26T02:22:45.130Z,4.05
2022-08-26T02:25:18.585Z,4.15
2022-08-26T02:30:21.156Z,4.07
2022-08-26T02:32:52.894Z,4.57
2022-08-26T02:35:26.004Z,4.03
2022-08-26T02:37:53.776Z,4.45
2022-08-26T02:40:26.490Z,4.20
2022-08-26T02:43:05.829Z,3.92
2022-08-26T02:45:43.109Z,4.03
2022-08-26T02:48:15.194Z,4.07
2022-08-26T02:50:43.722Z,4.60
2022-08-26T02:53:15.398Z,4.45
2022-08-26T02:55:44.174Z,4.63
2022-08-26T02:58:12.575Z,4.43
2022-08-26T03:00:53.487Z,4.20
2022-08-26T03:03:23.573Z,4.25
2022-08-26T03:05:53.074Z,4.10
2022-08-26T03:08:22.183Z,4.50
2022-08-26T03:10:49.654Z,4.65
2022-08-26T03:13:17.272Z,4.20
2022-08-26T03:15:45.924Z,4.35
2022-08-26T03:18:16.011Z,4.30
2022-08-26T03:20:43.998Z,5.00
2022-08-26T03:23:12.438Z,4.50
2022-08-26T03:25:42.429Z,5.10
2022-08-26T03:28:12.377Z,4.40
2022-08-26T03:30:45.511Z,4.40
2022-08-26T03:33:13.912Z,4.43
2022-08-26T03:35:44.452Z,5.13
2022-08-26T03:38:11.995Z,4.22
2022-08-26T03:40:40.227Z,4.70
2022-08-26T03:43:12.552Z,4.72
2022-08-26T03:45:40.958Z,4.57
2022-08-26T03:48:11.403Z,4.60
2022-08-26T03:50:39.586Z,4.68
2022-08-26T03:53:13.143Z,4.47
2022-08-26T03:55:43.946Z,4.68
2022-08-26T03:58:15.628Z,4.75
2022-08-26T04:00:45.276Z,4.95
2022-08-26T04:03:33.748Z,4.60
2022-08-26T04:06:01.434Z,4.75
2022-08-26T04:08:28.705Z,4.70
2022-08-26T04:10:56.070Z,4.97
2022-08-26T04:13:27.548Z,4.82
2022-08-26T04:15:54.940Z,5.07
2022-08-26T04:18:31.449Z,4.78
2022-08-26T04:21:08.531Z,4.85
2022-08-26T04:23:47.637Z,4.97
2022-08-26T04:26:16.804Z,4.63
2022-08-26T04:28:44.176Z,4.10
2022-08-26T04:31:17.435Z,5.30
2022-08-26T04:33:49.656Z,4.95
2022-08-26T04:36:20.255Z,5.13
2022-08-26T04:38:47.995Z,5.00
2022-08-26T04:41:17.000Z,5.10
2022-08-26T04:43:45.525Z,5.00
2022-08-26T04:46:20.005Z,4.70
2022-08-26T04:48:50.966Z,5.32
2022-08-26T04:51:21.243Z,5.73
2022-08-26T04:53:49.199Z,5.40
2022-08-26T04:56:23.164Z,5.43
2022-08-26T04:58:51.669Z,5.60
2022-08-26T05:01:20.573Z,4.97
2022-08-26T05:03:49.005Z,4.65
2022-08-26T05:06:19.097Z,5.30
2022-08-26T05:08:47.192Z,5.10
2022-08-26T05:11:14.569Z,5.25
2022-08-26T05:13:44.191Z,5.40
2022-08-26T05:16:14.001Z,5.18
2022-08-26T05:18:43.511Z,5.00
2022-08-26T05:21:33.010Z,5.15
2022-08-26T05:24:01.997Z,4.68
2022-08-26T05:26:31.233Z,5.07
2022-08-26T05:28:58.648Z,5.25
2022-08-26T05:31:31.210Z,5.10
2022-08-26T05:33:59.331Z,5.85
2022-08-26T05:36:29.551Z,5.03
2022-08-26T05:38:58.153Z,5.05
2022-08-26T05:41:34.410Z,6.18
2022-08-26T05:44:09.325Z,4.75
2022-08-26T05:46:41.348Z,5.03
2022-08-26T05:49:18.650Z,5.13
2022-08-26T05:51:49.067Z,4.88
2022-08-26T05:54:21.309Z,5.15
2022-08-26T05:56:52.854Z,5.22
2022-08-26T05:59:24.100Z,5.38
2022-08-26T06:01:54.558Z,4.83
2022-08-26T06:04:28.253Z,5.15
2022-08-26T06:07:09.937Z,4.60
2022-08-26T06:09:39.255Z,4.43
2022-08-26T06:12:06.891Z,4.90
2022-08-26T06:14:35.687Z,4.65
2022-08-26T06:17:03.142Z,5.13
2022-08-26T06:19:33.047Z,4.95
2022-08-26T06:22:22.540Z,4.60
2022-08-26T06:25:10.108Z,4.75
2022-08-26T06:27:39.973Z,4.72
2022-08-26T06:30:09.691Z,4.47
2022-08-26T06:32:37.108Z,4.55
2022-08-26T06:35:07.215Z,5.38
2022-08-26T06:37:41.166Z,4.93
2022-08-26T06:40:09.339Z,4.65
2022-08-26T06:42:38.948Z,4.40
2022-08-26T06:45:07.377Z,5.00
2022-08-26T06:47:37.153Z,5.10
2022-08-26T06:50:04.769Z,5.20
2022-08-26T06:52:34.274Z,4.68
2022-08-26T06:55:02.478Z,4.90
2022-08-26T06:57:32.809Z,5.18
2022-08-26T07:00:05.550Z,4.70
2022-08-26T07:02:34.875Z,4.72
2022-08-26T07:05:02.412Z,4.80
2022-08-26T07:07:30.559Z,5.00
2022-08-26T07:09:57.986Z,5.13
2022-08-26T07:12:27.905Z,4.72
2022-08-26T07:14:55.676Z,4.72
2022-08-26T07:17:25.174Z,4.88
2022-08-26T07:19:55.591Z,4.43
2022-08-26T07:22:25.113Z,5.03
2022-08-26T07:24:52.643Z,4.45
2022-08-26T07:27:19.948Z,4.57
2022-08-26T07:29:48.466Z,4.85
2022-08-26T07:32:18.933Z,4.22
2022-08-26T07:34:48.789Z,4.72
2022-08-26T07:37:16.680Z,4.95
2022-08-26T07:39:45.153Z,4.22
2022-08-26T07:42:18.388Z,4.78
2022-08-26T07:47:25.635Z,5.07
2022-08-26T07:49:57.738Z,5.07
2022-08-26T07:52:30.081Z,4.95
2022-08-26T07:54:58.901Z,4.82
2022-08-26T07:57:27.557Z,4.53
2022-08-26T07:59:58.759Z,4.65
2022-08-26T08:02:28.449Z,4.80
2022-08-26T08:04:58.260Z,5.10
2022-08-26T08:07:44.722Z,5.00
2022-08-26T08:10:18.990Z,5.20
2022-08-26T08:12:49.721Z,4.28
2022-08-26T08:15:24.905Z,5.03
2022-08-26T08:17:53.066Z,5.03
2022-08-26T08:20:23.017Z,4.78
2022-08-26T08:22:51.478Z,4.40
2022-08-26T08:25:19.479Z,5.25
2022-08-26T08:27:50.331Z,5.00
2022-08-26T08:30:23.049Z,4.82
2022-08-26T08:35:22.364Z,4.78
2022-08-26T08:37:54.844Z,4.78
2022-08-26T08:40:25.410Z,4.38
2022-08-26T08:43:09.865Z,4.82
2022-08-26T08:45:42.992Z,4.55
2022-08-26T08:48:33.344Z,4.68
2022-08-26T08:51:09.526Z,4.85
2022-08-26T08:53:44.364Z,4.75
2022-08-26T08:56:34.682Z,4.80
2022-08-26T08:59:25.261Z,4.65
2022-08-26T09:01:57.945Z,5.22
2022-08-26T09:04:44.797Z,4.53
2022-08-26T09:07:18.584Z,4.55
2022-08-26T09:09:55.341Z,4.65
2022-08-26T09:12:31.802Z,4.40
2022-08-26T09:15:06.028Z,4.85
2022-08-26T09:17:47.376Z,5.07
2022-08-26T09:20:35.807Z,4.45
2022-08-26T09:23:06.352Z,4.20
2022-08-26T09:28:28.564Z,4.40
2022-08-26T09:31:11.762Z,4.18
2022-08-26T09:33:40.199Z,4.88
2022-08-26T09:36:22.586Z,4.20
2022-08-26T09:38:53.930Z,4.30
2022-08-26T09:41:31.544Z,3.90
2022-08-26T09:44:07.926Z,4.30
2022-08-26T09:49:27.091Z,3.90
2022-08-26T09:52:14.703Z,3.90
2022-08-26T09:54:46.058Z,3.90
2022-08-26T09:57:26.376Z,3.63
2022-08-26T09:59:54.196Z,4.15
2022-08-26T10:02:36.348Z,4.05
2022-08-26T10:05:11.165Z,3.75
2022-08-26T10:07:43.094Z,3.90
2022-08-26T10:10:22.152Z,3.60
2022-08-26T10:12:59.297Z,3.80
2022-08-26T10:15:40.454Z,3.88
2022-08-26T10:18:48.222Z,3.80
2022-08-26T10:22:07.334Z,3.72
2022-08-26T10:24:51.963Z,4.35
2022-08-26T10:27:33.996Z,3.28
2022-08-26T10:30:13.437Z,3.63
2022-08-26T10:32:47.784Z,3.40
2022-08-26T10:35:17.830Z,3.92
2022-08-26T10:38:11.310Z,3.90
2022-08-26T10:40:55.078Z,3.75
2022-08-26T10:43:49.356Z,3.38
2022-08-26T10:46:27.045Z,3.50
2022-08-26T10:49:25.155Z,3.58
2022-08-26T10:52:00.309Z,3.22
2022-08-26T10:54:37.266Z,3.90
2022-08-26T10:57:43.392Z,3.42
2022-08-26T11:00:41.660Z,3.20
2022-08-26T11:03:35.040Z,3.40
2022-08-26T11:06:21.836Z,3.35
2022-08-26T11:08:52.982Z,3.70
2022-08-26T11:11:47.938Z,2.92
2022-08-26T11:14:29.062Z,3.10
2022-08-26T11:19:58.900Z,3.33
2022-08-26T11:22:36.321Z,3.38
2022-08-26T11:25:15.635Z,3.40
2022-08-26T11:27:46.322Z,4.13
2022-08-26T11:30:18.457Z,3.50
2022-08-26T11:32:59.024Z,3.58
2022-08-26T11:35:27.265Z,3.20
2022-08-26T11:37:58.362Z,3.60
2022-08-26T11:40:35.302Z,3.55
2022-08-26T11:43:06.157Z,3.53
2022-08-26T11:45:38.010Z,3.40
2022-08-26T11:48:18.790Z,3.50
2022-08-26T11:51:05.671Z,3.80
2022-08-26T11:53:38.444Z,3.53
2022-08-26T11:56:10.417Z,3.47
2022-08-26T11:58:44.268Z,3.13
2022-08-26T12:01:31.291Z,3.25
2022-08-26T12:04:05.768Z,3.47
2022-08-26T12:06:43.377Z,3.47
2022-08-26T12:09:29.273Z,3.45
2022-08-26T12:12:14.429Z,3.00
2022-08-26T12:14:42.864Z,3.55
2022-08-26T12:17:28.475Z,3.25
2022-08-26T12:19:59.226Z,3.45
2022-08-26T12:22:33.251Z,3.50
2022-08-26T12:25:07.374Z,3.30
2022-08-26T12:27:40.195Z,3.30
2022-08-26T12:30:12.328Z,3.58
2022-08-26T12:32:57.642Z,3.35
2022-08-26T12:35:28.691Z,3.60
2022-08-26T12:38:00.849Z,3.50
2022-08-26T12:40:31.258Z,3.30
2022-08-26T12:43:03.239Z,3.40
2022-08-26T12:45:37.160Z,4.00
2022-08-26T12:48:24.589Z,4.32
2022-08-26T12:50:58.263Z,4.13
2022-08-26T12:53:31.927Z,3.90
2022-08-26T12:56:20.591Z,4.75
2022-08-26T12:59:10.315Z,4.60
2022-08-26T13:01:43.587Z,4.82
2022-08-26T13:04:41.917Z,4.65
2022-08-26T13:07:27.739Z,4.32
2022-08-26T13:09:57.493Z,4.90
2022-08-26T13:12:26.784Z,4.90
2022-08-26T13:14:56.546Z,5.05
2022-08-26T13:17:23.777Z,4.72
2022-08-26T13:19:54.178Z,5.05
2022-08-26T13:22:26.812Z,5.35
2022-08-26T13:24:56.524Z,4.63
2022-08-26T13:27:26.202Z,5.82
2022-08-26T13:29:57.760Z,4.90
2022-08-26T13:32:29.034Z,6.03
2022-08-26T13:35:05.555Z,5.63
2022-08-26T13:37:36.575Z,4.80
2022-08-26T13:40:09.296Z,4.75
2022-08-26T13:42:36.810Z,5.90
2022-08-26T13:45:17.104Z,4.95
2022-08-26T13:47:44.602Z,5.53
2022-08-26T13:50:19.724Z,5.07
2022-08-26T13:52:50.291Z,5.30
2022-08-26T13:55:17.616Z,4.70
2022-08-26T13:57:45.077Z,5.57
2022-08-26T14:00:13.082Z,5.07
2022-08-26T14:02:53.540Z,4.78
2022-08-26T14:05:21.798Z,4.63
2022-08-26T14:07:49.190Z,4.35
2022-08-26T14:10:20.719Z,4.60
2022-08-26T14:12:49.492Z,5.80
2022-08-26T14:15:18.477Z,5.25
2022-08-26T14:17:48.370Z,4.80
2022-08-26T14:20:27.119Z,5.28
2022-08-26T14:23:13.313Z,5.45
2022-08-26T14:25:42.411Z,5.35
2022-08-26T14:28:09.685Z,5.13
2022-08-26T14:30:41.600Z,4.72
2022-08-26T14:33:14.330Z,5.18
2022-08-26T14:35:47.375Z,5.50
2022-08-26T14:38:21.527Z,5.30
2022-08-26T14:40:48.922Z,5.55
2022-08-26T14:43:16.474Z,5.13
2022-08-26T14:45:50.347Z,5.00
2022-08-26T14:48:17.517Z,5.22
2022-08-26T14:54:04.032Z,5.32
2022-08-26T14:56:38.235Z,5.07
2022-08-26T14:59:07.390Z,5.47
2022-08-26T15:01:35.016Z,5.50
2022-08-26T15:04:02.740Z,5.35
2022-08-26T15:06:34.925Z,5.35
2022-08-26T15:09:04.889Z,5.82
2022-08-26T15:11:34.550Z,5.65
2022-08-26T15:14:04.481Z,4.95
2022-08-26T15:16:33.372Z,5.30
2022-08-26T15:19:06.597Z,5.25
2022-08-26T15:21:38.845Z,4.90
2022-08-26T15:24:06.433Z,5.18
2022-08-26T15:26:34.798Z,5.30
2022-08-26T15:29:04.978Z,5.68
2022-08-26T15:31:33.811Z,5.32
2022-08-26T15:34:07.431Z,5.45
2022-08-26T15:36:37.665Z,4.65
2022-08-26T15:39:11.556Z,4.80
2022-08-26T15:41:39.556Z,5.70
2022-08-26T15:44:08.013Z,5.20
2022-08-26T15:46:36.391Z,5.43
2022-08-26T15:49:05.059Z,5.05
2022-08-26T15:51:45.437Z,5.10
2022-08-26T15:54:16.576Z,4.80
2022-08-26T15:56:45.493Z,5.22
2022-08-26T15:59:15.321Z,5.50
2022-08-26T16:02:18.206Z,6.30
2022-08-26T16:04:45.413Z,5.20
2022-08-26T16:07:13.002Z,5.55
2022-08-26T16:09:44.929Z,4.80
2022-08-26T16:14:41.278Z,4.75
2022-08-26T16:17:08.741Z,4.55
2022-08-26T16:19:37.320Z,3.95
2022-08-26T16:22:09.095Z,4.57
2022-08-26T16:24:36.954Z,4.60
2022-08-26T16:27:04.538Z,4.15
2022-08-26T16:29:32.518Z,4.50
2022-08-26T16:32:00.076Z,4.18
2022-08-26T16:34:32.041Z,4.30
2022-08-26T16:37:00.487Z,4.20
2022-08-26T16:39:27.812Z,4.28
2022-08-26T16:41:55.337Z,4.97
2022-08-26T16:44:24.185Z,4.30
2022-08-26T16:46:58.805Z,4.38
2022-08-26T16:49:32.634Z,4.22
2022-08-26T16:52:02.615Z,4.20
2022-08-26T16:54:30.861Z,4.22
2022-08-26T16:57:02.702Z,4.00
2022-08-26T16:59:36.567Z,4.15
2022-08-26T17:02:07.010Z,5.40
2022-08-26T17:04:34.629Z,3.90
2022-08-26T17:07:01.795Z,3.78
2022-08-26T17:09:31.399Z,3.53
2022-08-26T17:12:01.555Z,3.63
2022-08-26T17:14:29.370Z,3.85
2022-08-26T17:16:57.811Z,3.17
2022-08-26T17:19:25.374Z,2.85
2022-08-26T17:21:54.750Z,2.65
2022-08-26T17:24:25.434Z,2.35
2022-08-26T17:26:53.450Z,2.03
2022-08-26T17:29:27.882Z,2.10
2022-08-26T17:31:57.249Z,2.00
2022-08-26T17:34:25.176Z,2.00
2022-08-26T17:36:52.310Z,1.90
2022-08-26T17:39:34.615Z,2.22
2022-08-26T17:42:02.051Z,1.90
2022-08-26T17:44:29.517Z,1.90
2022-08-26T17:46:57.746Z,2.40
2022-08-26T17:49:33.738Z,2.60
2022-08-26T17:52:02.506Z,2.50
2022-08-26T17:54:34.666Z,2.67
2022-08-26T17:57:01.965Z,2.80
2022-08-26T17:59:32.889Z,3.17
2022-08-26T18:02:00.431Z,3.53
2022-08-26T18:04:30.110Z,3.45
2022-08-26T18:06:57.361Z,4.13
2022-08-26T18:09:24.863Z,3.17
2022-08-26T18:11:52.116Z,3.97
2022-08-26T18:14:19.701Z,4.03
2022-08-26T18:16:52.269Z,4.63
2022-08-26T18:19:19.758Z,4.20
2022-08-26T18:21:47.223Z,4.75
2022-08-26T18:24:19.690Z,4.07
2022-08-26T18:26:51.002Z,4.10
2022-08-26T18:29:19.607Z,3.65
2022-08-26T18:31:48.373Z,3.92
2022-08-26T18:34:16.893Z,3.97
2022-08-26T18:36:44.145Z,4.35
2022-08-26T18:39:12.936Z,3.67
2022-08-26T18:41:53.028Z,4.30
2022-08-26T18:44:23.952Z,3.90
2022-08-26T18:46:54.037Z,4.13
2022-08-26T18:49:21.265Z,4.43
2022-08-26T18:51:54.251Z,4.30
2022-08-26T18:54:21.894Z,3.72
2022-08-26T18:56:52.608Z,3.70
2022-08-26T18:59:20.053Z,3.60
2022-08-26T19:01:57.539Z,3.83
2022-08-26T19:04:25.006Z,3.92
2022-08-26T19:06:52.910Z,3.83
2022-08-26T19:09:22.719Z,4.18
2022-08-26T19:11:52.464Z,3.80
2022-08-26T19:14:22.340Z,4.10
2022-08-26T19:16:52.268Z,3.67
2022-08-26T19:19:23.739Z,4.00
2022-08-26T19:21:51.837Z,3.60
2022-08-26T19:24:21.910Z,3.65
2022-08-26T19:26:57.894Z,4.05
2022-08-26T19:29:31.541Z,4.10
2022-08-26T19:31:59.265Z,4.05
2022-08-26T19:34:26.760Z,4.30
2022-08-26T19:36:56.942Z,4.20
2022-08-26T19:39:26.348Z,4.13
2022-08-26T19:41:53.900Z,3.60
2022-08-26T19:44:41.048Z,4.00
2022-08-26T19:47:09.642Z,4.45
2022-08-26T19:49:38.603Z,3.78
2022-08-26T19:52:11.416Z,3.72
2022-08-26T19:54:39.611Z,4.50
2022-08-26T19:57:09.423Z,4.00
2022-08-26T19:59:41.802Z,4.18
2022-08-26T20:02:11.005Z,4.22
2022-08-26T20:04:40.238Z,4.60
2022-08-26T20:07:08.599Z,4.03
2022-08-26T20:09:37.074Z,3.78
2022-08-26T20:12:05.980Z,4.15
2022-08-26T20:14:35.178Z,4.65
2022-08-26T20:17:03.827Z,3.83
2022-08-26T20:19:52.764Z,4.00
2022-08-26T20:22:20.369Z,4.40
2022-08-26T20:24:49.851Z,4.35
2022-08-26T20:27:19.718Z,4.80
2022-08-26T20:29:49.257Z,4.20
2022-08-26T20:32:18.779Z,4.40
2022-08-26T20:34:45.999Z,4.03
2022-08-26T20:37:16.652Z,4.35
2022-08-26T20:39:49.103Z,4.30
2022-08-26T20:42:20.573Z,4.28
2022-08-26T20:44:55.033Z,5.15
2022-08-26T20:47:24.525Z,4.28
2022-08-26T20:49:53.151Z,4.65
2022-08-26T20:52:24.996Z,4.47
2022-08-26T20:54:52.744Z,4.63
2022-08-26T20:57:22.168Z,4.53
2022-08-26T20:59:51.893Z,4.25
2022-08-26T21:02:21.566Z,4.97
2022-08-26T21:04:49.056Z,4.88
2022-08-26T21:07:16.282Z,4.85
2022-08-26T21:09:45.160Z,4.97
2022-08-26T21:12:12.844Z,5.35
2022-08-26T21:14:40.222Z,4.93
2022-08-26T21:17:12.579Z,4.47
2022-08-26T21:19:42.346Z,4.78
2022-08-26T21:22:12.311Z,4.57
2022-08-26T21:24:39.876Z,4.95
2022-08-26T21:27:07.285Z,4.78
2022-08-26T21:29:36.308Z,4.80
2022-08-26T21:32:04.772Z,4.57
2022-08-26T21:34:32.046Z,4.70
2022-08-26T21:36:59.332Z,4.97
2022-08-26T21:39:26.630Z,4.50
2022-08-26T21:41:54.009Z,4.78
2022-08-26T21:44:23.908Z,4.90
2022-08-26T21:46:51.015Z,5.55
2022-08-26T21:49:18.297Z,5.13
2022-08-26T21:51:47.457Z,4.60
2022-08-26T21:54:15.793Z,4.72
2022-08-26T21:56:46.756Z,4.90
2022-08-26T21:59:19.919Z,5.03
2022-08-26T22:01:47.680Z,4.40
2022-08-26T22:04:14.975Z,5.38
2022-08-26T22:06:45.699Z,5.30
2022-08-26T22:09:15.143Z,4.65
2022-08-26T22:11:43.252Z,5.10
2022-08-26T22:14:11.703Z,5.22
2022-08-26T22:16:41.594Z,4.93
2022-08-26T22:19:19.921Z,4.68
2022-08-26T22:21:50.078Z,5.68
2022-08-26T22:24:20.034Z,5.18
2022-08-26T22:26:48.362Z,5.18
2022-08-26T22:29:16.776Z,6.13
2022-08-26T22:31:44.267Z,4.82
2022-08-26T22:34:17.270Z,5.38
2022-08-26T22:39:21.047Z,5.53
2022-08-26T22:41:52.141Z,5.65
2022-08-26T22:44:21.492Z,5.90
2022-08-26T22:46:50.977Z,5.43
2022-08-26T22:49:18.394Z,5.63
2022-08-26T22:51:46.879Z,5.13
2022-08-26T22:54:19.260Z,5.72
2022-08-26T22:56:46.504Z,4.97
2022-08-26T22:59:17.985Z,5.70
2022-08-26T23:01:46.801Z,5.60
2022-08-26T23:04:13.992Z,6.07
2022-08-26T23:06:47.666Z,5.88
2022-08-26T23:09:19.187Z,5.25
2022-08-26T23:11:48.392Z,5.75
2022-08-26T23:14:17.463Z,6.00
2022-08-26T23:16:47.873Z,5.60
2022-08-26T23:19:17.531Z,5.63
2022-08-26T23:21:49.354Z,6.22
2022-08-26T23:24:19.211Z,6.15
2022-08-26T23:26:46.818Z,5.35
2022-08-26T23:29:15.843Z,6.32
2022-08-26T23:31:43.959Z,6.38
2022-08-26T23:34:30.594Z,6.88
2022-08-26T23:37:01.251Z,7.32
2022-08-26T23:39:31.361Z,7.22
2022-08-26T23:42:01.566Z,7.65
2022-08-26T23:44:32.912Z,8.52
2022-08-26T23:47:00.813Z,9.30
2022-08-26T23:49:32.487Z,8.85
2022-08-26T23:52:19.062Z,9.05
2022-08-26T23:54:48.676Z,11.32
2022-08-26T23:57:17.650Z,9.93
2022-08-26T23:59:48.646Z,9.63
